Ashton, West Virginia
Current Conditions -  °F | °C
As of 8:35 PM on Monday 24 Nov 2014 (Local Time) from K3I2 Reporting Station
Clear Clear  
Wind Chill:   Ceiling: Unl
Heat Index:   Visibility: 10mi
Dew Point:   Wind: 0mph
Humidity: 66%   Direction: NA
Pressure: 29.89"   Gusts: NA
Location:  38.62°N, 82.16°W
Report Text: K3I2 250135Z AUTO 00000KT 10SM CLR 08/02 A2989 RMK AO2
Loading
Personal Weather Stations






























Interactive Weather Map New forecast layout! Learn more

10-Day Weather Forecast

Advertisements
Track Severe Weather on mobile